Terminal Aerodrome Forecast
Issued by NWS

Home | Current Version | Previous Version | Graphics & Text | Print | Product List | Glossary On
Versions: 1 2 3 4 5 6 7 8 9 10 11 12 13 14 15
000
FTUS43 KLSX 201120
TAFSUS
TAF
KSUS 201120Z 2012/2112 21004KT P6SM BKN250 WS010/21035KT
     FM201600 21012G20KT P6SM BKN250
     FM210000 21009KT P6SM BKN200=

USA.gov is the U.S. government's official web portal to all federal, state and local government web resources and services.